createdAt,value
2018-06-20T00:00:12.284Z,5.90
2018-06-20T00:03:36.985Z,5.17
2018-06-20T00:07:01.582Z,4.70
2018-06-20T00:10:29.884Z,4.63
2018-06-20T00:13:55.543Z,4.57
2018-06-20T00:17:20.229Z,4.87
2018-06-20T00:20:44.913Z,6.93
2018-06-20T00:24:09.576Z,4.77
2018-06-20T00:27:33.875Z,4.63
2018-06-20T00:30:58.509Z,4.73
2018-06-20T00:34:23.286Z,4.13
2018-06-20T00:37:47.924Z,4.43
2018-06-20T00:41:12.617Z,4.67
2018-06-20T00:44:37.369Z,5.03
2018-06-20T00:48:02.008Z,4.40
2018-06-20T00:51:26.657Z,4.40
2018-06-20T00:54:51.255Z,4.73
2018-06-20T00:58:15.837Z,4.80
2018-06-20T01:01:40.456Z,4.70
2018-06-20T01:05:05.928Z,4.63
2018-06-20T01:08:30.544Z,4.47
2018-06-20T01:11:55.249Z,4.67
2018-06-20T01:15:19.854Z,4.90
2018-06-20T01:18:44.452Z,5.20
2018-06-20T01:22:09.174Z,5.80
2018-06-20T01:25:33.846Z,4.57
2018-06-20T01:28:58.574Z,4.53
2018-06-20T01:32:23.232Z,6.03
2018-06-20T01:35:47.842Z,5.57
2018-06-20T01:39:12.704Z,4.77
2018-06-20T01:42:37.138Z,4.90
2018-06-20T01:46:01.813Z,4.43
2018-06-20T01:49:26.612Z,4.90
2018-06-20T01:52:51.253Z,5.43
2018-06-20T01:56:15.868Z,4.83
2018-06-20T01:59:40.568Z,4.70
2018-06-20T02:03:05.206Z,4.33
2018-06-20T02:06:29.894Z,4.97
2018-06-20T02:09:54.556Z,5.93
2018-06-20T02:13:19.226Z,5.90
2018-06-20T02:16:43.928Z,5.17
2018-06-20T02:20:08.641Z,4.93
2018-06-20T02:23:33.290Z,4.60
2018-06-20T02:26:57.910Z,5.60
2018-06-20T02:30:22.551Z,4.37
2018-06-20T02:33:47.195Z,4.60
2018-06-20T02:37:11.501Z,5.43
2018-06-20T02:40:36.186Z,5.03
2018-06-20T02:44:00.845Z,4.70
2018-06-20T02:47:30.743Z,5.13
2018-06-20T02:50:55.408Z,6.97
2018-06-20T02:54:20.232Z,4.77
2018-06-20T02:57:44.913Z,6.07
2018-06-20T03:01:09.598Z,4.50
2018-06-20T03:04:34.035Z,5.10
2018-06-20T03:07:58.699Z,5.37
2018-06-20T03:11:23.394Z,4.80
2018-06-20T03:14:48.043Z,4.90
2018-06-20T03:18:12.696Z,5.00
2018-06-20T03:21:37.374Z,4.30
2018-06-20T03:25:02.043Z,5.63
2018-06-20T03:28:26.798Z,4.53
2018-06-20T03:31:51.477Z,5.00
2018-06-20T03:35:16.121Z,4.80
2018-06-20T03:38:40.760Z,5.40
2018-06-20T03:42:05.425Z,6.17
2018-06-20T03:45:29.758Z,6.37
2018-06-20T03:48:54.733Z,5.67
2018-06-20T03:52:19.448Z,7.20
2018-06-20T03:55:44.070Z,5.23
2018-06-20T03:59:08.737Z,7.07
2018-06-20T04:02:33.377Z,5.47
2018-06-20T04:05:58.023Z,5.73
2018-06-20T04:09:22.629Z,6.63
2018-06-20T04:12:46.989Z,5.77
2018-06-20T04:16:11.613Z,6.07
2018-06-20T04:19:35.900Z,8.23
2018-06-20T04:23:00.629Z,6.10
2018-06-20T04:26:25.333Z,6.70
2018-06-20T04:29:49.977Z,5.60
2018-06-20T04:33:14.646Z,5.90
2018-06-20T04:36:39.213Z,5.47
2018-06-20T04:40:03.925Z,10.33
2018-06-20T04:43:28.540Z,5.83
2018-06-20T04:46:54.196Z,6.13
2018-06-20T04:50:18.754Z,5.90
2018-06-20T04:53:43.421Z,7.43
2018-06-20T04:57:08.044Z,6.40
2018-06-20T05:00:32.324Z,5.83
2018-06-20T05:03:56.598Z,6.43
2018-06-20T05:07:21.272Z,5.60
2018-06-20T05:10:45.558Z,5.57
2018-06-20T05:14:10.250Z,6.33
2018-06-20T05:17:34.839Z,6.33
2018-06-20T05:20:59.455Z,7.07
2018-06-20T05:24:24.212Z,5.47
2018-06-20T05:27:48.838Z,8.13
2018-06-20T05:31:13.451Z,6.33
2018-06-20T05:34:38.125Z,8.37
2018-06-20T05:38:02.726Z,6.77
2018-06-20T05:41:27.345Z,6.93
2018-06-20T05:44:51.939Z,6.43
2018-06-20T05:48:16.572Z,8.77
2018-06-20T05:51:41.221Z,7.90
2018-06-20T05:55:05.972Z,6.27
2018-06-20T05:58:30.612Z,5.87
2018-06-20T06:01:55.005Z,7.40
2018-06-20T06:05:19.709Z,5.90
2018-06-20T06:08:45.005Z,6.73
2018-06-20T06:12:09.715Z,7.53
2018-06-20T06:15:34.355Z,6.80
2018-06-20T06:18:59.007Z,8.60
2018-06-20T06:22:23.596Z,8.63
2018-06-20T06:25:48.264Z,8.90
2018-06-20T06:29:12.871Z,8.07
2018-06-20T06:32:37.574Z,8.43
2018-06-20T06:36:02.268Z,9.40
2018-06-20T06:39:26.915Z,8.53
2018-06-20T06:42:51.601Z,7.03
2018-06-20T06:46:16.239Z,7.27
2018-06-20T06:49:41.111Z,8.13
2018-06-20T06:53:05.777Z,7.13
2018-06-20T06:56:30.529Z,7.97
2018-06-20T06:59:55.180Z,6.43
2018-06-20T07:03:19.817Z,5.97
2018-06-20T07:06:44.474Z,7.23
2018-06-20T07:10:09.145Z,7.67
2018-06-20T07:13:33.749Z,6.73
2018-06-20T07:16:58.482Z,8.77
2018-06-20T07:20:23.145Z,6.67
2018-06-20T07:23:47.757Z,6.70
2018-06-20T07:27:12.445Z,7.63
2018-06-20T07:30:37.063Z,7.43
2018-06-20T07:34:01.757Z,9.87
2018-06-20T07:37:26.739Z,7.10
2018-06-20T07:40:51.358Z,7.93
2018-06-20T07:44:16.059Z,6.47
2018-06-20T07:47:40.751Z,7.37
2018-06-20T07:51:05.114Z,6.57
2018-06-20T07:54:29.907Z,6.70
2018-06-20T07:57:54.638Z,7.70
2018-06-20T08:01:41.519Z,6.47
2018-06-20T08:05:11.772Z,7.07
2018-06-20T08:08:41.945Z,6.77
2018-06-20T08:12:12.460Z,6.90
2018-06-20T08:15:43.853Z,6.33
2018-06-20T08:19:13.805Z,6.70
2018-06-20T08:22:38.571Z,7.03
2018-06-20T08:26:03.299Z,6.60
2018-06-20T08:29:27.944Z,8.43
2018-06-20T08:32:52.688Z,7.13
2018-06-20T08:36:17.370Z,7.27
2018-06-20T08:39:41.997Z,8.97
2018-06-20T08:43:06.638Z,6.53
2018-06-20T08:46:31.277Z,6.23
2018-06-20T08:49:56.343Z,8.03
2018-06-20T08:53:21.029Z,10.40
2018-06-20T08:56:45.746Z,6.63
2018-06-20T09:00:10.410Z,6.77
2018-06-20T09:03:35.299Z,6.07
2018-06-20T09:08:08.950Z,7.20
2018-06-20T09:11:38.938Z,7.23
2018-06-20T09:15:09.078Z,6.40
2018-06-20T09:18:39.042Z,6.47
2018-06-20T09:22:03.790Z,7.53
2018-06-20T09:25:28.165Z,6.60
2018-06-20T09:28:52.920Z,7.07
2018-06-20T09:32:17.222Z,6.73
2018-06-20T09:35:41.927Z,6.77
2018-06-20T09:39:08.508Z,7.80
2018-06-20T09:42:33.134Z,7.30
2018-06-20T09:45:57.806Z,5.80
2018-06-20T09:49:23.612Z,6.90
2018-06-20T09:52:48.606Z,6.13
2018-06-20T09:56:14.108Z,5.73
2018-06-20T09:59:44.318Z,6.80
2018-06-20T10:03:14.188Z,6.57
2018-06-20T10:06:44.282Z,6.63
2018-06-20T10:10:13.986Z,7.40
2018-06-20T10:13:44.721Z,6.23
2018-06-20T10:17:09.101Z,6.50
2018-06-20T10:20:33.746Z,5.50
2018-06-20T10:23:58.568Z,6.30
2018-06-20T10:27:22.975Z,6.00
2018-06-20T10:30:47.622Z,5.90
2018-06-20T10:34:12.303Z,5.70
2018-06-20T10:37:36.898Z,6.00
2018-06-20T10:41:01.219Z,5.63
2018-06-20T10:44:25.818Z,10.13
2018-06-20T10:47:51.600Z,6.10
2018-06-20T10:51:15.971Z,5.80
2018-06-20T10:54:40.681Z,5.60
2018-06-20T10:58:11.283Z,5.67
2018-06-20T11:01:41.267Z,6.47
2018-06-20T11:05:11.370Z,5.73
2018-06-20T11:08:41.503Z,6.63
2018-06-20T11:12:11.296Z,5.27
2018-06-20T11:15:36.198Z,5.57
2018-06-20T11:19:00.874Z,5.53
2018-06-20T11:22:25.223Z,5.40
2018-06-20T11:25:49.892Z,5.57
2018-06-20T11:29:14.774Z,6.27
2018-06-20T11:32:39.328Z,5.47
2018-06-20T11:36:03.961Z,7.10
2018-06-20T11:39:28.831Z,5.90
2018-06-20T11:42:53.556Z,5.37
2018-06-20T11:47:28.100Z,5.10
2018-06-20T11:50:52.744Z,5.23
2018-06-20T11:54:17.410Z,4.58
2018-06-20T11:57:41.719Z,4.80
2018-06-20T12:02:11.586Z,4.57
2018-06-20T12:06:44.196Z,4.57
2018-06-20T12:10:14.346Z,4.75
2018-06-20T12:13:44.379Z,5.47
2018-06-20T12:17:08.081Z,4.67
2018-06-20T12:20:38.804Z,4.42
2018-06-20T12:24:08.924Z,5.87
2018-06-20T12:27:39.236Z,6.30
2018-06-20T12:31:09.271Z,4.40
2018-06-20T12:34:40.414Z,4.40
2018-06-20T12:38:10.340Z,4.50
2018-06-20T12:41:40.305Z,4.40
2018-06-20T12:45:06.317Z,4.87
2018-06-20T12:48:31.037Z,7.37
2018-06-20T12:51:55.678Z,5.35
2018-06-20T12:55:20.434Z,7.17
2018-06-20T12:58:45.123Z,6.90
2018-06-20T13:02:09.784Z,4.87
2018-06-20T13:05:34.493Z,6.58
2018-06-20T13:08:58.855Z,4.85
2018-06-20T13:12:23.504Z,5.45
2018-06-20T13:15:48.164Z,4.17
2018-06-20T13:19:12.856Z,4.62
2018-06-20T13:22:37.479Z,4.83
2018-06-20T13:26:02.163Z,4.80
2018-06-20T13:29:26.438Z,4.40
2018-06-20T13:32:56.359Z,6.20
2018-06-20T13:36:26.045Z,4.53
2018-06-20T13:39:55.997Z,4.20
2018-06-20T13:43:25.923Z,6.05
2018-06-20T13:46:55.764Z,4.28
2018-06-20T13:50:20.402Z,4.92
2018-06-20T13:53:45.032Z,5.72
2018-06-20T13:57:09.653Z,4.35
2018-06-20T14:00:34.286Z,4.28
2018-06-20T14:03:58.938Z,5.03
2018-06-20T14:07:23.355Z,5.87
2018-06-20T14:10:47.943Z,5.20
2018-06-20T14:14:12.834Z,4.95
2018-06-20T14:17:38.172Z,5.08
2018-06-20T14:21:08.009Z,5.70
2018-06-20T14:24:32.752Z,4.33
2018-06-20T14:27:57.428Z,4.37
2018-06-20T14:31:27.856Z,3.92
2018-06-20T14:34:58.203Z,4.78
2018-06-20T14:38:29.070Z,4.58
2018-06-20T14:41:59.175Z,3.98
2018-06-20T14:45:29.221Z,4.08
2018-06-20T14:48:53.640Z,4.00
2018-06-20T14:52:18.326Z,4.30
2018-06-20T14:55:43.055Z,4.90
2018-06-20T14:59:07.764Z,5.00
2018-06-20T15:02:32.466Z,3.90
2018-06-20T15:05:57.586Z,6.40
2018-06-20T15:09:22.306Z,3.70
2018-06-20T15:12:47.076Z,3.77
2018-06-20T15:16:17.028Z,3.52
2018-06-20T15:19:41.709Z,3.67
2018-06-20T15:23:06.450Z,3.83
2018-06-20T15:26:36.567Z,3.95
2018-06-20T15:30:06.448Z,3.62
2018-06-20T15:33:36.308Z,3.75
2018-06-20T15:37:06.341Z,4.22
2018-06-20T15:40:31.063Z,3.72
2018-06-20T15:43:55.727Z,4.05
2018-06-20T15:47:20.420Z,4.08
2018-06-20T15:50:45.164Z,4.25
2018-06-20T15:54:09.916Z,4.53
2018-06-20T15:57:34.726Z,3.33
2018-06-20T16:00:59.524Z,4.85
2018-06-20T16:04:24.209Z,4.10
2018-06-20T16:07:49.255Z,6.25
2018-06-20T16:11:13.921Z,4.12
2018-06-20T16:14:38.614Z,3.70
2018-06-20T16:18:03.313Z,3.40
2018-06-20T16:21:33.392Z,3.80
2018-06-20T16:25:03.446Z,3.95
2018-06-20T16:28:33.357Z,4.00
2018-06-20T16:31:58.113Z,3.70
2018-06-20T16:35:22.802Z,3.55
2018-06-20T16:38:47.525Z,3.30
2018-06-20T16:42:12.156Z,3.67
2018-06-20T16:45:36.841Z,5.45
2018-06-20T16:49:01.625Z,3.30
2018-06-20T16:52:26.508Z,3.47
2018-06-20T16:55:51.135Z,3.58
2018-06-20T16:59:15.905Z,3.15
2018-06-20T17:02:41.864Z,3.40
2018-06-20T17:06:06.544Z,4.58
2018-06-20T17:09:31.173Z,3.35
2018-06-20T17:13:01.132Z,4.00
2018-06-20T17:16:31.069Z,3.85
2018-06-20T17:20:00.759Z,3.15
2018-06-20T17:23:30.739Z,4.58
2018-06-20T17:26:55.394Z,3.98
2018-06-20T17:30:20.026Z,3.42
2018-06-20T17:33:44.791Z,3.10
2018-06-20T17:37:09.448Z,5.50
2018-06-20T17:40:34.175Z,3.12
2018-06-20T17:43:58.512Z,3.08
2018-06-20T17:47:23.334Z,2.83
2018-06-20T17:50:48.016Z,3.20
2018-06-20T17:54:12.617Z,6.03
2018-06-20T17:57:37.599Z,3.40
2018-06-20T18:01:07.506Z,3.45
2018-06-20T18:04:37.440Z,3.75
2018-06-20T18:08:07.107Z,2.50
2018-06-20T18:11:37.108Z,2.60
2018-06-20T18:15:07.024Z,3.22
2018-06-20T18:18:32.654Z,3.08
2018-06-20T18:21:57.632Z,2.95
2018-06-20T18:25:22.279Z,4.28
2018-06-20T18:28:46.953Z,3.50
2018-06-20T18:32:11.243Z,3.08
2018-06-20T18:35:36.377Z,3.77
2018-06-20T18:39:01.869Z,5.72
2018-06-20T18:42:26.595Z,4.20
2018-06-20T18:45:51.276Z,3.30
2018-06-20T18:49:15.996Z,3.77
2018-06-20T18:52:40.716Z,3.58
2018-06-20T18:56:05.586Z,3.65
2018-06-20T18:59:35.739Z,3.22
2018-06-20T19:03:06.320Z,3.58
2018-06-20T19:06:36.307Z,3.85
2018-06-20T19:10:02.898Z,4.75
2018-06-20T19:13:27.719Z,4.55
2018-06-20T19:16:52.456Z,3.20
2018-06-20T19:20:17.111Z,3.52
2018-06-20T19:23:41.802Z,3.57
2018-06-20T19:27:06.554Z,3.27
2018-06-20T19:30:31.347Z,3.77
2018-06-20T19:33:56.022Z,3.20
2018-06-20T19:37:20.741Z,3.57
2018-06-20T19:40:46.545Z,5.43
2018-06-20T19:44:33.032Z,3.83
2018-06-20T19:47:58.206Z,4.17
2018-06-20T19:51:23.291Z,3.90
2018-06-20T19:54:49.830Z,5.93
2018-06-20T19:58:16.205Z,5.37
2018-06-20T20:01:41.678Z,4.60
2018-06-20T20:05:07.475Z,4.80
2018-06-20T20:17:36.145Z,3.63
2018-06-20T20:21:02.663Z,4.23
2018-06-20T20:24:28.043Z,3.97
2018-06-20T20:27:53.034Z,3.93
2018-06-20T20:31:19.057Z,6.70
2018-06-20T20:34:43.721Z,6.03
2018-06-20T20:38:08.364Z,6.20
2018-06-20T20:41:32.756Z,5.03
2018-06-20T20:44:57.354Z,5.67
2018-06-20T20:48:22.176Z,4.73
2018-06-20T20:51:47.726Z,5.80
2018-06-20T20:55:12.423Z,7.07
2018-06-20T20:58:37.151Z,3.90
2018-06-20T21:02:01.847Z,4.40
2018-06-20T21:05:26.816Z,5.33
2018-06-20T21:08:52.641Z,5.63
2018-06-20T21:12:16.913Z,5.40
2018-06-20T21:15:41.697Z,5.90
2018-06-20T21:19:06.542Z,7.03
2018-06-20T21:22:30.865Z,6.63
2018-06-20T21:25:55.512Z,6.67
2018-06-20T21:29:20.209Z,6.70
2018-06-20T21:32:44.881Z,6.90
2018-06-20T21:36:09.233Z,6.00
2018-06-20T21:39:34.020Z,5.43
2018-06-20T21:42:58.779Z,6.83
2018-06-20T21:46:23.573Z,6.17
2018-06-20T21:49:48.412Z,7.53
2018-06-20T21:53:13.137Z,5.90
2018-06-20T21:56:37.719Z,6.40
2018-06-20T22:00:02.533Z,5.37
2018-06-20T22:03:27.307Z,6.20
2018-06-20T22:06:52.133Z,6.60
2018-06-20T22:10:16.529Z,5.63
2018-06-20T22:13:40.821Z,5.67
2018-06-20T22:17:05.559Z,5.03
2018-06-20T22:20:30.387Z,5.87
2018-06-20T22:23:55.793Z,6.47
2018-06-20T22:27:20.666Z,5.67
2018-06-20T22:30:45.417Z,6.93
2018-06-20T22:34:09.742Z,5.03
2018-06-20T22:37:34.485Z,9.10
2018-06-20T22:40:59.262Z,5.33
2018-06-20T22:44:24.044Z,5.63
2018-06-20T22:47:48.846Z,6.27
2018-06-20T22:51:13.566Z,4.90
2018-06-20T22:54:38.242Z,5.40
2018-06-20T22:58:02.956Z,5.00
2018-06-20T23:01:27.720Z,7.37
2018-06-20T23:04:52.507Z,5.97
2018-06-20T23:08:17.167Z,5.23
2018-06-20T23:11:47.387Z,5.10
2018-06-20T23:15:12.238Z,5.47
2018-06-20T23:18:36.928Z,5.50
2018-06-20T23:22:01.668Z,5.63
2018-06-20T23:25:26.022Z,4.83
2018-06-20T23:28:50.697Z,5.70
2018-06-20T23:32:15.342Z,5.37
2018-06-20T23:35:39.978Z,5.70
2018-06-20T23:39:07.012Z,5.93
2018-06-20T23:42:31.676Z,6.03
2018-06-20T23:45:56.390Z,6.07
2018-06-20T23:49:21.016Z,5.60
2018-06-20T23:52:45.784Z,5.23
2018-06-20T23:56:10.586Z,5.67
2018-06-20T23:59:35.019Z,6.03
